1851 Tropical Storm NOT_NAMED (1851241N27280)


IBTrACS version v04r00. Visit IBTrACS website for data access.
Please direct all questions to the IBTrACS Q and A forum

Storm track - Intensity - Wind Radii - Intensity Data - Source Data - All data

Summary Information

Storm ID 1851241N27280
Start Aug 28 12Z
Max Intensity 40 kt (Aug 29 00Z)
End Sep 4 12Z
ATCF IDs
Track status Best track data.

Storm track plot

Map of storm track

Intensity plots

Map of storm track

Radial wind information

No radial wind information for this storm


Position and Intensity Table

BASIN ISO_TIME_________ NATURE LAT LON MLC WIND
degrees north degrees east kts
NA 1851-08-28 12:00:00 TS 27.00 -80.00 35
NA 15:00:00 TS 27.05 -80.00 35
NA 18:00:00 TS 27.10 -80.00 35
NA 21:00:00 TS 27.14 -80.00 37
NA 1851-08-29 00:00:00 TS 27.20 -80.00 40
NA 03:00:00 TS 27.30 -80.00 40
NA 06:00:00 TS 27.40 -80.00 40
NA 09:00:00 TS 27.45 -80.01 40
NA 12:00:00 TS 27.50 -80.00 40
NA 15:00:00 TS 27.56 -79.94 40
NA 18:00:00 TS 27.70 -79.80 40
NA 21:00:00 TS 27.99 -79.57 40
NA 1851-08-30 00:00:00 TS 28.30 -79.30 40
NA 03:00:00 TS 28.46 -79.04 40
NA 06:00:00 TS 28.60 -78.80 40
NA 09:00:00 TS 28.80 -78.58 40
NA 12:00:00 TS 29.00 -78.40 40
NA 15:00:00 TS 29.15 -78.28 40
NA 18:00:00 TS 29.30 -78.20 40
NA 21:00:00 TS 29.49 -78.10 40
NA 1851-08-31 00:00:00 TS 29.70 -78.00 40
NA 03:00:00 TS 29.90 -77.91 40
NA 06:00:00 TS 30.10 -77.80 40
NA 09:00:00 TS 30.33 -77.65 40
NA 12:00:00 TS 30.50 -77.50 40
NA 15:00:00 TS 30.52 -77.40 40
NA 18:00:00 TS 30.50 -77.30 40
NA 21:00:00 TS 30.55 -77.15 40
NA 1851-09-01 00:00:00 TS 30.60 -77.00 40
NA 03:00:00 TS 30.60 -76.90 40
NA 06:00:00 TS 30.60 -76.80 40
NA 09:00:00 TS 30.64 -76.64 40
NA 12:00:00 TS 30.70 -76.50 40
NA 15:00:00 TS 30.76 -76.48 40
NA 18:00:00 TS 30.80 -76.50 40
NA 21:00:00 TS 30.80 -76.51 40
NA 1851-09-02 00:00:00 TS 30.80 -76.50 40
NA 03:00:00 TS 30.84 -76.45 40
NA 06:00:00 TS 30.90 -76.40 40
NA 09:00:00 TS 30.93 -76.40 40
NA 12:00:00 TS 31.00 -76.40 40
NA 15:00:00 TS 31.11 -76.36 40
NA 18:00:00 TS 31.30 -76.30 40
NA 21:00:00 TS 31.58 -76.25 40
NA 1851-09-03 00:00:00 TS 31.90 -76.20 40
NA 03:00:00 TS 32.21 -76.15 40
NA 06:00:00 TS 32.50 -76.10 40
NA 09:00:00 TS 32.76 -76.06 40
NA 12:00:00 TS 33.00 -76.00 40
NA 15:00:00 TS 33.20 -75.91 40
NA 18:00:00 TS 33.40 -75.80 40
NA 21:00:00 TS 33.63 -75.66 40
NA 1851-09-04 00:00:00 TS 33.90 -75.50 40
NA 03:00:00 TS 34.19 -75.31 37
NA 06:00:00 TS 34.50 -75.10 35
NA 09:00:00 TS 34.80 -74.90 35
NA 12:00:00 TS 35.10 -74.70 35

Source Information

Agency Information
USA
TOKYO
CMA
HKO
NEWDELHI
REUNION
BOM
NADI
WELLINGTON
DS824
TD9636
TD9635
NEUMANN
MLC

All available IBTrACS Data

SEASON BASIN SUBBASIN ISO_TIME_________ NATURE LAT LON DIST2LAND LANDFALL IFLAG USA SSHS MLC LAT MLC LON MLC CLASS MLC WIND STORM SPEED STORM DIR
Year degrees north degrees east km km 1 degrees north degrees east kts kts degrees
1851 NA NA 1851-08-28 12:00:00 TS 27.00 -80.00 9 9 _____________O -1 27.00 -80.00 TS 35 1 20
1851 NA NA 15:00:00 TS 27.05 -80.00 14 14 _____________P -1 27.05 -80.00 TS 35 1 0
1851 NA NA 18:00:00 TS 27.10 -80.00 14 14 _____________O -1 27.10 -80.00 TS 35 1 0
1851 NA NA 21:00:00 TS 27.14 -80.00 14 14 _____________P -1 27.14 -80.00 TS 37 1 0
1851 NA NA 1851-08-29 00:00:00 TS 27.20 -80.00 19 19 _____________O -1 27.20 -80.00 TS 40 2 6
1851 NA NA 03:00:00 TS 27.30 -80.00 22 22 _____________P -1 27.30 -80.00 TS 40 2 8
1851 NA NA 06:00:00 TS 27.40 -80.00 29 29 _____________O -1 27.40 -80.00 TS 40 2 0
1851 NA NA 09:00:00 TS 27.45 -80.01 29 29 _____________P -1 27.45 -80.01 TS 40 1 0
1851 NA NA 12:00:00 TS 27.50 -80.00 31 31 _____________O -1 27.50 -80.00 TS 40 1 31
1851 NA NA 15:00:00 TS 27.56 -79.94 45 45 _____________P -1 27.56 -79.94 TS 40 3 42
1851 NA NA 18:00:00 TS 27.70 -79.80 59 59 _____________O -1 27.70 -79.80 TS 40 5 37
1851 NA NA 21:00:00 TS 27.99 -79.57 89 89 _____________P -1 27.99 -79.57 TS 40 7 36
1851 NA NA 1851-08-30 00:00:00 TS 28.30 -79.30 119 119 _____________O -1 28.30 -79.30 TS 40 7 45
1851 NA NA 03:00:00 TS 28.46 -79.04 146 146 _____________P -1 28.46 -79.04 TS 40 5 56
1851 NA NA 06:00:00 TS 28.60 -78.80 166 166 _____________O -1 28.60 -78.80 TS 40 5 51
1851 NA NA 09:00:00 TS 28.80 -78.58 188 188 _____________P -1 28.80 -78.58 TS 40 5 41
1851 NA NA 12:00:00 TS 29.00 -78.40 211 211 _____________O -1 29.00 -78.40 TS 40 4 36
1851 NA NA 15:00:00 TS 29.15 -78.28 224 224 _____________P -1 29.15 -78.28 TS 40 3 30
1851 NA NA 18:00:00 TS 29.30 -78.20 240 240 _____________O -1 29.30 -78.20 TS 40 4 25
1851 NA NA 21:00:00 TS 29.49 -78.10 258 258 _____________P -1 29.49 -78.10 TS 40 4 23
1851 NA NA 1851-08-31 00:00:00 TS 29.70 -78.00 277 277 _____________O -1 29.70 -78.00 TS 40 4 22
1851 NA NA 03:00:00 TS 29.90 -77.91 296 296 _____________P -1 29.90 -77.91 TS 40 4 23
1851 NA NA 06:00:00 TS 30.10 -77.80 316 316 _____________O -1 30.10 -77.80 TS 40 5 27
1851 NA NA 09:00:00 TS 30.33 -77.65 336 331 _____________P -1 30.33 -77.65 TS 40 5 33
1851 NA NA 12:00:00 TS 30.50 -77.50 331 331 _____________O -1 30.50 -77.50 TS 40 3 49
1851 NA NA 15:00:00 TS 30.52 -77.40 336 336 _____________P -1 30.52 -77.40 TS 40 2 90
1851 NA NA 18:00:00 TS 30.50 -77.30 342 342 _____________O -1 30.50 -77.30 TS 40 2 83
1851 NA NA 21:00:00 TS 30.55 -77.15 338 338 _____________P -1 30.55 -77.15 TS 40 3 69
1851 NA NA 1851-09-01 00:00:00 TS 30.60 -77.00 350 350 _____________O -1 30.60 -77.00 TS 40 2 77
1851 NA NA 03:00:00 TS 30.60 -76.90 356 356 _____________P -1 30.60 -76.90 TS 40 2 90
1851 NA NA 06:00:00 TS 30.60 -76.80 363 363 _____________O -1 30.60 -76.80 TS 40 2 79
1851 NA NA 09:00:00 TS 30.64 -76.64 376 368 _____________P -1 30.64 -76.64 TS 40 3 69
1851 NA NA 12:00:00 TS 30.70 -76.50 374 367 _____________O -1 30.70 -76.50 TS 40 2 49
1851 NA NA 15:00:00 TS 30.76 -76.48 367 367 _____________P -1 30.76 -76.48 TS 40 1 0
1851 NA NA 18:00:00 TS 30.80 -76.50 367 367 _____________O -1 30.80 -76.50 TS 40 0 0
1851 NA NA 21:00:00 TS 30.80 -76.51 367 367 _____________P -1 30.80 -76.51 TS 40 0 0
1851 NA NA 1851-09-02 00:00:00 TS 30.80 -76.50 367 367 _____________O -1 30.80 -76.50 TS 40 1 52
1851 NA NA 03:00:00 TS 30.84 -76.45 367 366 _____________P -1 30.84 -76.45 TS 40 1 40
1851 NA NA 06:00:00 TS 30.90 -76.40 366 366 _____________O -1 30.90 -76.40 TS 40 1 17
1851 NA NA 09:00:00 TS 30.93 -76.40 366 356 _____________P -1 30.93 -76.40 TS 40 1 0
1851 NA NA 12:00:00 TS 31.00 -76.40 356 346 _____________O -1 31.00 -76.40 TS 40 2 12
1851 NA NA 15:00:00 TS 31.11 -76.36 346 330 _____________P -1 31.11 -76.36 TS 40 3 16
1851 NA NA 18:00:00 TS 31.30 -76.30 330 301 _____________O -1 31.30 -76.30 TS 40 5 11
1851 NA NA 21:00:00 TS 31.58 -76.25 306 279 _____________P -1 31.58 -76.25 TS 40 6 8
1851 NA NA 1851-09-03 00:00:00 TS 31.90 -76.20 279 252 _____________O -1 31.90 -76.20 TS 40 6 8
1851 NA NA 03:00:00 TS 32.21 -76.15 259 235 _____________P -1 32.21 -76.15 TS 40 6 8
1851 NA NA 06:00:00 TS 32.50 -76.10 235 214 _____________O -1 32.50 -76.10 TS 40 6 9
1851 NA NA 09:00:00 TS 32.76 -76.06 214 195 _____________P -1 32.76 -76.06 TS 40 5 10
1851 NA NA 12:00:00 TS 33.00 -76.00 195 176 _____________O -1 33.00 -76.00 TS 40 5 15
1851 NA NA 15:00:00 TS 33.20 -75.91 176 158 _____________P -1 33.20 -75.91 TS 40 4 23
1851 NA NA 18:00:00 TS 33.40 -75.80 158 142 _____________O -1 33.40 -75.80 TS 40 5 26
1851 NA NA 21:00:00 TS 33.63 -75.66 142 127 _____________P -1 33.63 -75.66 TS 40 6 27
1851 NA NA 1851-09-04 00:00:00 TS 33.90 -75.50 127 120 _____________O -1 33.90 -75.50 TS 40 6 28
1851 NA NA 03:00:00 TS 34.19 -75.31 120 113 _____________P -1 34.19 -75.31 TS 37 7 29
1851 NA NA 06:00:00 TS 34.50 -75.10 118 114 _____________O -1 34.50 -75.10 TS 35 7 29
1851 NA NA 09:00:00 TS 34.80 -74.90 114 105 _____________P -1 34.80 -74.90 TS 35 7 29
1851 NA NA 12:00:00 TS 35.10 -74.70 106 _____________O -1 35.10 -74.70 TS 35 7 29